42TE weather

CHI St. Luke's Hospital Heliport
Sugarland, Texas, United States

Public forecast

Using degrees Fahrenheit for public forecast. Weather courtesy of forecast.io.

Closest aviation weather report (METAR) to CHI St. Luke's Hospital Heliport

Closest report is Sugar Land Regional Airport, 2.2 nm (4.0 km) WNW. Retrieved 2020/08/05 14:53 UTC (57 minutes ago):

KSGR 051453Z 26004KT 10SM FEW030 30/25 A3002 RMK AO2 SLP165 T03000250 51015

Closest aviation forecast (TAF) to CHI St. Luke's Hospital Heliport

Closest forecast is Sugar Land Regional Airport, 2.2 nm (4.0 km) WNW. Retrieved 2020/08/05 12:30 UTC (3 hours ago):

TAF KSGR 051128Z 0512/0612 VRB02KT 6SM BR SCT020 FM051500 21005KT P6SM SCT030 FM052100 18006KT P6SM VCSH SCT040 FM060100 18004KT P6SM BKN120